Terminal Aerodrome Forecast
Issued by NWS

Home | Current Version | Previous Version | Text Only | Print | Product List | Glossary Off
Versions: 1 2 3 4 5 6 7 8 9 10 11 12 13 14 15 16 17 18 19 20 21 22

000
FTUS43 KTOP 182300
TAFMHK
TAF
KMHK 182320Z 1900/1924 17010KT P6SM VCTS SCT030 BKN070CB
      TEMPO 1900/1901 26010G20KT
     FM190200 26005KT 5SM -TSRA BKN025CB
     FM190800 VRB03KT 3SM -SHRA VCTS SCT008 BKN020CB
     FM191600 35008KT P6SM VCSH OVC040
     FM191900 34013G21KT P6SM -SHRA VCTS OVC030CB=

USA.gov is the U.S. government's official web portal to all federal, state and local government web resources and services.